sensor_id;sensor_type;location;lat;lon;timestamp;pressure;altitude;pressure_sealevel;temperature;humidity
83716;BME280;73698;51.138;6.950;2023-12-22T00:01:04;99750.13;;;4.13;91.42
83716;BME280;73698;51.138;6.950;2023-12-22T00:03:29;99774.91;;;4.13;90.83
83716;BME280;73698;51.138;6.950;2023-12-22T00:05:55;99780.06;;;4.16;90.91
83716;BME280;73698;51.138;6.950;2023-12-22T00:08:20;99760.50;;;4.18;91.17
83716;BME280;73698;51.138;6.950;2023-12-22T00:10:45;99754.16;;;4.20;90.95
83716;BME280;73698;51.138;6.950;2023-12-22T00:13:11;99751.31;;;4.23;91.47
83716;BME280;73698;51.138;6.950;2023-12-22T00:15:36;99748.84;;;4.20;91.19
83716;BME280;73698;51.138;6.950;2023-12-22T00:18:01;99739.78;;;4.23;91.67
83716;BME280;73698;51.138;6.950;2023-12-22T00:20:27;99741.81;;;4.19;91.40
83716;BME280;73698;51.138;6.950;2023-12-22T00:22:53;99737.34;;;4.20;91.36
83716;BME280;73698;51.138;6.950;2023-12-22T00:25:18;99765.47;;;4.24;91.81
83716;BME280;73698;51.138;6.950;2023-12-22T00:27:43;99763.56;;;4.26;91.23
83716;BME280;73698;51.138;6.950;2023-12-22T00:30:09;99787.34;;;4.29;91.76
83716;BME280;73698;51.138;6.950;2023-12-22T00:32:35;99795.00;;;4.35;91.42
83716;BME280;73698;51.138;6.950;2023-12-22T00:35:00;99770.94;;;4.36;90.79
83716;BME280;73698;51.138;6.950;2023-12-22T00:37:26;99763.81;;;4.37;90.70
83716;BME280;73698;51.138;6.950;2023-12-22T00:39:51;99761.16;;;4.37;90.86
83716;BME280;73698;51.138;6.950;2023-12-22T00:42:17;99765.53;;;4.38;90.61
83716;BME280;73698;51.138;6.950;2023-12-22T00:44:42;99788.38;;;4.42;90.34
83716;BME280;73698;51.138;6.950;2023-12-22T00:47:07;99767.84;;;4.44;89.86
83716;BME280;73698;51.138;6.950;2023-12-22T00:49:33;99778.16;;;4.50;89.76
83716;BME280;73698;51.138;6.950;2023-12-22T00:51:58;99774.53;;;4.51;88.88
83716;BME280;73698;51.138;6.950;2023-12-22T00:54:24;99763.44;;;4.59;88.08
83716;BME280;73698;51.138;6.950;2023-12-22T00:56:50;99787.03;;;4.65;87.73
83716;BME280;73698;51.138;6.950;2023-12-22T00:59:15;99814.25;;;4.70;87.51
83716;BME280;73698;51.138;6.950;2023-12-22T01:01:41;99802.56;;;4.73;87.20
83716;BME280;73698;51.138;6.950;2023-12-22T01:04:07;99812.97;;;4.77;87.44
83716;BME280;73698;51.138;6.950;2023-12-22T01:06:37;99798.13;;;4.73;86.53
83716;BME280;73698;51.138;6.950;2023-12-22T01:09:02;99789.16;;;4.74;86.83
83716;BME280;73698;51.138;6.950;2023-12-22T01:11:28;99786.69;;;4.71;87.68
83716;BME280;73698;51.138;6.950;2023-12-22T01:13:53;99781.53;;;4.68;88.65
83716;BME280;73698;51.138;6.950;2023-12-22T01:16:19;99804.63;;;4.68;88.96
83716;BME280;73698;51.138;6.950;2023-12-22T01:18:46;99797.59;;;4.67;90.06
83716;BME280;73698;51.138;6.950;2023-12-22T01:21:12;99799.13;;;4.71;89.26
83716;BME280;73698;51.138;6.950;2023-12-22T01:23:37;99778.69;;;4.71;89.34
83716;BME280;73698;51.138;6.950;2023-12-22T01:26:02;99769.84;;;4.71;90.01
83716;BME280;73698;51.138;6.950;2023-12-22T01:28:28;99782.22;;;4.72;89.98
83716;BME280;73698;51.138;6.950;2023-12-22T01:30:53;99781.25;;;4.73;90.48
83716;BME280;73698;51.138;6.950;2023-12-22T01:33:19;99793.81;;;4.71;90.60
83716;BME280;73698;51.138;6.950;2023-12-22T01:35:44;99789.34;;;4.71;90.71
83716;BME280;73698;51.138;6.950;2023-12-22T01:38:09;99792.09;;;4.70;90.60
83716;BME280;73698;51.138;6.950;2023-12-22T01:40:35;99820.34;;;4.72;90.73
83716;BME280;73698;51.138;6.950;2023-12-22T01:43:01;99826.53;;;4.73;90.96
83716;BME280;73698;51.138;6.950;2023-12-22T01:45:27;99825.66;;;4.72;91.18
83716;BME280;73698;51.138;6.950;2023-12-22T01:47:52;99792.78;;;4.73;91.76
83716;BME280;73698;51.138;6.950;2023-12-22T01:50:20;99784.81;;;4.73;90.79
83716;BME280;73698;51.138;6.950;2023-12-22T01:52:46;99789.00;;;4.77;90.10
83716;BME280;73698;51.138;6.950;2023-12-22T01:55:13;99802.09;;;4.80;89.46
83716;BME280;73698;51.138;6.950;2023-12-22T01:57:39;99825.91;;;4.83;90.12
83716;BME280;73698;51.138;6.950;2023-12-22T02:00:07;99787.03;;;4.95;88.34
83716;BME280;73698;51.138;6.950;2023-12-22T02:02:32;99791.91;;;5.03;88.16
83716;BME280;73698;51.138;6.950;2023-12-22T02:04:59;99800.75;;;5.03;88.23
83716;BME280;73698;51.138;6.950;2023-12-22T02:07:25;99820.53;;;4.99;87.49
83716;BME280;73698;51.138;6.950;2023-12-22T02:09:50;99809.88;;;4.99;87.67
83716;BME280;73698;51.138;6.950;2023-12-22T02:12:16;99808.84;;;5.02;87.45
83716;BME280;73698;51.138;6.950;2023-12-22T02:14:41;99812.34;;;5.02;87.33
83716;BME280;73698;51.138;6.950;2023-12-22T02:17:15;99816.72;;;5.03;87.58
83716;BME280;73698;51.138;6.950;2023-12-22T02:19:47;99821.13;;;5.04;87.50
83716;BME280;73698;51.138;6.950;2023-12-22T02:22:13;99832.81;;;5.02;87.90
83716;BME280;73698;51.138;6.950;2023-12-22T02:24:40;99826.81;;;4.98;87.26
83716;BME280;73698;51.138;6.950;2023-12-22T02:27:22;99811.63;;;5.00;87.41
83716;BME280;73698;51.138;6.950;2023-12-22T02:30:14;99853.09;;;5.04;87.94
83716;BME280;73698;51.138;6.950;2023-12-22T02:32:43;99854.81;;;5.05;88.16
83716;BME280;73698;51.138;6.950;2023-12-22T02:35:16;99842.34;;;5.06;87.69
83716;BME280;73698;51.138;6.950;2023-12-22T02:37:42;99846.47;;;5.11;87.60
83716;BME280;73698;51.138;6.950;2023-12-22T02:40:10;99844.06;;;5.07;88.22
83716;BME280;73698;51.138;6.950;2023-12-22T02:42:37;99853.09;;;5.04;88.83
83716;BME280;73698;51.138;6.950;2023-12-22T02:45:04;99863.25;;;4.98;88.95
83716;BME280;73698;51.138;6.950;2023-12-22T02:47:30;99868.94;;;4.92;88.55
83716;BME280;73698;51.138;6.950;2023-12-22T02:49:57;99863.19;;;4.83;88.39
83716;BME280;73698;51.138;6.950;2023-12-22T02:52:23;99866.41;;;4.74;88.87
83716;BME280;73698;51.138;6.950;2023-12-22T02:54:48;99850.94;;;4.65;89.42
83716;BME280;73698;51.138;6.950;2023-12-22T02:57:13;99834.38;;;4.60;89.58
83716;BME280;73698;51.138;6.950;2023-12-22T02:59:39;99840.75;;;4.57;89.70
83716;BME280;73698;51.138;6.950;2023-12-22T03:02:04;99831.19;;;4.53;88.67
83716;BME280;73698;51.138;6.950;2023-12-22T03:04:30;99825.28;;;4.48;89.03
83716;BME280;73698;51.138;6.950;2023-12-22T03:06:55;99838.94;;;4.42;89.29
83716;BME280;73698;51.138;6.950;2023-12-22T03:09:21;99837.59;;;4.35;89.33
83716;BME280;73698;51.138;6.950;2023-12-22T03:11:47;99834.97;;;4.33;89.06
83716;BME280;73698;51.138;6.950;2023-12-22T03:14:13;99830.19;;;4.24;89.40
83716;BME280;73698;51.138;6.950;2023-12-22T03:16:39;99823.59;;;4.15;89.53
83716;BME280;73698;51.138;6.950;2023-12-22T03:19:04;99832.75;;;4.10;89.12
83716;BME280;73698;51.138;6.950;2023-12-22T03:21:30;99825.19;;;4.02;89.90
83716;BME280;73698;51.138;6.950;2023-12-22T03:23:55;99815.94;;;3.94;89.84
